createdAt,value
2022-07-25T00:00:12.060Z,7.699999809
2022-07-25T00:01:12.865Z,7.699999809
2022-07-25T00:02:14.522Z,7.400000095
2022-07-25T00:03:18.527Z,8
2022-07-25T00:04:16.124Z,8.5
2022-07-25T00:05:16.778Z,7.900000095
2022-07-25T00:06:17.759Z,7.699999809
2022-07-25T00:07:18.948Z,8.100000381
2022-07-25T00:08:20.415Z,7.699999809
2022-07-25T00:09:21.269Z,8.5
2022-07-25T00:10:22.134Z,7.599999905
2022-07-25T00:11:22.992Z,8.699999809
2022-07-25T00:12:23.766Z,8.5
2022-07-25T00:13:24.587Z,7.800000191
2022-07-25T00:14:25.334Z,8
2022-07-25T00:15:26.013Z,8.600000381
2022-07-25T00:16:26.812Z,8.899999619
2022-07-25T00:17:28.387Z,7.800000191
2022-07-25T00:18:29.149Z,8
2022-07-25T00:19:29.905Z,7.699999809
2022-07-25T00:20:30.629Z,8.199999809
2022-07-25T00:21:31.424Z,8.399999619
2022-07-25T00:22:32.071Z,8.800000191
2022-07-25T00:23:32.758Z,8.300000191
2022-07-25T00:24:34.416Z,7.599999905
2022-07-25T00:26:05.483Z,7.599999905
2022-07-25T00:27:06.978Z,7.599999905
2022-07-25T00:28:07.760Z,8.5
2022-07-25T00:29:08.553Z,8.399999619
2022-07-25T00:30:09.291Z,7.800000191
2022-07-25T00:31:10.247Z,8.300000191
2022-07-25T00:32:11.729Z,7.900000095
2022-07-25T00:33:12.508Z,8.899999619
2022-07-25T00:34:13.312Z,8
2022-07-25T00:35:13.996Z,8.199999809
2022-07-25T00:36:15.299Z,8.699999809
2022-07-25T00:37:17.003Z,8.300000191
2022-07-25T00:38:17.753Z,7.900000095
2022-07-25T00:39:18.432Z,8.399999619
2022-07-25T00:40:19.096Z,7.800000191
2022-07-25T00:41:19.818Z,8.199999809
2022-07-25T00:42:20.626Z,8.300000191
2022-07-25T00:43:21.358Z,8.300000191
2022-07-25T00:44:22.127Z,8.300000191
2022-07-25T00:45:22.815Z,8.100000381
2022-07-25T00:46:23.624Z,8.699999809
2022-07-25T00:47:24.971Z,8.300000191
2022-07-25T00:48:25.852Z,8.600000381
2022-07-25T00:49:27.430Z,8.399999619
2022-07-25T00:50:28.084Z,8.899999619
2022-07-25T00:51:28.876Z,9
2022-07-25T00:52:29.718Z,8.100000381
2022-07-25T00:53:30.483Z,7.699999809
2022-07-25T00:54:31.215Z,8
2022-07-25T00:55:31.930Z,8.600000381
2022-07-25T00:56:32.645Z,8.399999619
2022-07-25T00:57:34.535Z,8.300000191
2022-07-25T00:59:05.656Z,8.399999619
2022-07-25T01:00:06.375Z,9
2022-07-25T01:01:07.129Z,8.800000191
2022-07-25T01:02:07.950Z,8
2022-07-25T01:03:09.496Z,8.399999619
2022-07-25T01:04:10.191Z,7.300000191
2022-07-25T01:05:10.994Z,8.100000381
2022-07-25T01:06:11.578Z,8.5
2022-07-25T01:07:12.964Z,8.5
2022-07-25T01:08:14.501Z,8.300000191
2022-07-25T01:09:15.258Z,8.300000191
2022-07-25T01:10:16.007Z,8.399999619
2022-07-25T01:11:16.707Z,8.300000191
2022-07-25T01:12:17.485Z,8.199999809
2022-07-25T01:13:18.301Z,8.399999619
2022-07-25T01:14:19.070Z,8
2022-07-25T01:15:19.826Z,8.100000381
2022-07-25T01:16:20.520Z,8.199999809
2022-07-25T01:17:21.961Z,8
2022-07-25T01:18:22.777Z,8.5
2022-07-25T01:19:23.540Z,9
2022-07-25T01:20:24.240Z,7.900000095
2022-07-25T01:21:24.891Z,8.800000191
2022-07-25T01:22:25.664Z,7.800000191
2022-07-25T01:23:26.530Z,8.100000381
2022-07-25T01:24:27.235Z,8.699999809
2022-07-25T01:25:27.917Z,9.100000381
2022-07-25T01:26:28.587Z,8.100000381
2022-07-25T01:27:29.958Z,8.100000381
2022-07-25T01:28:30.765Z,8.600000381
2022-07-25T01:29:31.434Z,8.5
2022-07-25T01:30:32.145Z,8.300000191
2022-07-25T01:31:32.951Z,8.600000381
2022-07-25T01:33:06.651Z,9.600000381
2022-07-25T01:34:05.338Z,8.800000191
2022-07-25T01:35:06.275Z,8.399999619
2022-07-25T01:36:06.930Z,8.300000191
2022-07-25T01:37:07.683Z,8.600000381
2022-07-25T01:38:09.353Z,8.600000381
2022-07-25T01:39:10.186Z,9.399999619
2022-07-25T01:40:10.873Z,9.100000381
2022-07-25T01:41:11.615Z,8.800000191
2022-07-25T01:42:12.437Z,9.100000381
2022-07-25T01:43:13.644Z,8.699999809
2022-07-25T01:44:14.666Z,8.899999619
2022-07-25T01:45:15.373Z,8.899999619
2022-07-25T01:46:16.086Z,8.600000381
2022-07-25T01:47:16.741Z,9.5
2022-07-25T01:48:18.360Z,8.399999619
2022-07-25T01:49:19.244Z,8.699999809
2022-07-25T01:50:19.778Z,9.300000191
2022-07-25T01:51:20.639Z,8.600000381
2022-07-25T01:52:21.227Z,8.899999619
2022-07-25T01:53:22.049Z,8.800000191
2022-07-25T01:54:22.838Z,8.800000191
2022-07-25T01:55:23.512Z,8.199999809
2022-07-25T01:56:24.191Z,8.300000191
2022-07-25T01:57:30.126Z,9.600000381
2022-07-25T01:58:26.398Z,9.100000381
2022-07-25T01:59:27.204Z,7.900000095
2022-07-25T02:00:27.819Z,8.899999619
2022-07-25T02:01:28.640Z,8.800000191
2022-07-25T02:02:29.429Z,8.699999809
2022-07-25T02:03:30.258Z,8.600000381
2022-07-25T02:04:31.107Z,8.5
2022-07-25T02:05:32.280Z,8.600000381
2022-07-25T02:07:03.572Z,8.199999809
2022-07-25T02:08:04.981Z,8.600000381
2022-07-25T02:09:05.814Z,9.399999619
2022-07-25T02:10:06.544Z,9.199999809
2022-07-25T02:11:07.182Z,9.100000381
2022-07-25T02:12:07.960Z,9.300000191
2022-07-25T02:13:08.751Z,9.399999619
2022-07-25T02:14:09.817Z,8.399999619
2022-07-25T02:15:10.333Z,8.699999809
2022-07-25T02:16:11.010Z,8.899999619
2022-07-25T02:17:11.985Z,8.600000381
2022-07-25T02:18:13.355Z,9
2022-07-25T02:19:14.133Z,9.100000381
2022-07-25T02:20:14.878Z,8.399999619
2022-07-25T02:21:15.555Z,8.699999809
2022-07-25T02:22:16.272Z,8.600000381
2022-07-25T02:23:17.074Z,9
2022-07-25T02:24:17.871Z,8.699999809
2022-07-25T02:25:18.725Z,9.399999619
2022-07-25T02:26:19.356Z,9
2022-07-25T02:27:20.064Z,9
2022-07-25T02:28:21.373Z,9.100000381
2022-07-25T02:29:22.316Z,9
2022-07-25T02:30:22.866Z,9.600000381
2022-07-25T02:31:23.572Z,9.100000381
2022-07-25T02:32:24.254Z,9.399999619
2022-07-25T02:33:25.031Z,8.800000191
2022-07-25T02:34:25.783Z,8.899999619
2022-07-25T02:35:27.374Z,8.899999619
2022-07-25T02:36:28.004Z,8.600000381
2022-07-25T02:37:28.826Z,8.600000381
2022-07-25T02:38:30.398Z,9.5
2022-07-25T02:39:31.196Z,8.600000381
2022-07-25T02:40:31.935Z,8.5
2022-07-25T02:42:03.132Z,8.699999809
2022-07-25T02:43:03.915Z,8.600000381
2022-07-25T02:44:05.195Z,8.5
2022-07-25T02:45:05.611Z,8.699999809
2022-07-25T02:46:06.384Z,9.199999809
2022-07-25T02:47:06.965Z,8.899999619
2022-07-25T02:48:08.509Z,8.699999809
2022-07-25T02:49:09.399Z,8.600000381
2022-07-25T02:50:10.160Z,9
2022-07-25T02:51:10.872Z,8.600000381
2022-07-25T02:52:11.530Z,10.10000038
2022-07-25T02:53:12.990Z,8.100000381
2022-07-25T02:54:14.068Z,8.899999619
2022-07-25T02:55:14.565Z,8.699999809
2022-07-25T02:56:15.257Z,8.399999619
2022-07-25T02:57:15.929Z,8.5
2022-07-25T02:58:17.483Z,9.199999809
2022-07-25T02:59:18.253Z,7.699999809
2022-07-25T03:00:19.038Z,8.399999619
2022-07-25T03:01:19.872Z,9.399999619
2022-07-25T03:02:20.479Z,8.399999619
2022-07-25T03:03:21.989Z,8.899999619
2022-07-25T03:04:22.796Z,9
2022-07-25T03:05:23.521Z,8.600000381
2022-07-25T03:06:24.809Z,8.800000191
2022-07-25T03:07:25.464Z,8.399999619
2022-07-25T03:08:27.004Z,9.100000381
2022-07-25T03:09:27.833Z,9.199999809
2022-07-25T03:10:28.588Z,8.800000191
2022-07-25T03:11:29.309Z,9.5
2022-07-25T03:12:29.968Z,8.800000191
2022-07-25T03:14:03.138Z,8.399999619
2022-07-25T03:15:03.662Z,9.800000191
2022-07-25T03:16:04.377Z,8.699999809
2022-07-25T03:17:05.141Z,9
2022-07-25T03:18:06.505Z,8.899999619
2022-07-25T03:19:07.339Z,8.699999809
2022-07-25T03:20:08.216Z,9.199999809
2022-07-25T03:21:08.941Z,9.199999809
2022-07-25T03:22:09.637Z,9.100000381
2022-07-25T03:23:10.429Z,9.699999809
2022-07-25T03:24:11.844Z,9.100000381
2022-07-25T03:25:15.858Z,9.399999619
2022-07-25T03:26:13.429Z,9.100000381
2022-07-25T03:27:14.183Z,8.800000191
2022-07-25T03:28:15.500Z,10.10000038
2022-07-25T03:29:16.344Z,8.300000191
2022-07-25T03:30:17.121Z,9.800000191
2022-07-25T03:31:18.021Z,9.800000191
2022-07-25T03:32:18.689Z,10.19999981
2022-07-25T03:33:20.048Z,9.600000381
2022-07-25T03:34:20.819Z,8.699999809
2022-07-25T03:35:21.639Z,10
2022-07-25T03:36:22.361Z,9.399999619
2022-07-25T03:37:23.072Z,9.699999809
2022-07-25T03:38:24.522Z,10.10000038
2022-07-25T03:39:25.359Z,9.100000381
2022-07-25T03:40:26.142Z,9.399999619
2022-07-25T03:41:27.954Z,9.199999809
2022-07-25T03:42:32.181Z,9.399999619
2022-07-25T03:43:28.402Z,9.399999619
2022-07-25T03:44:29.199Z,9.5
2022-07-25T03:45:30.126Z,9.699999809
2022-07-25T03:46:30.950Z,9.899999619
2022-07-25T03:48:02.262Z,10.19999981
2022-07-25T03:49:03.987Z,10.39999962
2022-07-25T03:50:04.780Z,10
2022-07-25T03:51:07.195Z,9.899999619
2022-07-25T03:52:06.225Z,9.800000191
2022-07-25T03:53:06.948Z,9.800000191
2022-07-25T03:54:08.068Z,10.30000019
2022-07-25T03:55:08.513Z,9.399999619
2022-07-25T03:56:09.297Z,10.19999981
2022-07-25T03:57:09.996Z,9.800000191
2022-07-25T03:58:10.714Z,10.69999981
2022-07-25T03:59:12.416Z,9.699999809
2022-07-25T04:00:13.222Z,10
2022-07-25T04:01:14.081Z,11.60000038
2022-07-25T04:02:14.873Z,11.10000038
2022-07-25T04:03:16.615Z,10
2022-07-25T04:04:17.319Z,10.30000019
2022-07-25T04:05:18.111Z,9.5
2022-07-25T04:06:18.902Z,10.10000038
2022-07-25T04:07:19.632Z,10.69999981
2022-07-25T04:08:21.018Z,10.30000019
2022-07-25T04:09:21.701Z,10.19999981
2022-07-25T04:10:22.509Z,9.899999619
2022-07-25T04:11:23.337Z,10.5
2022-07-25T04:12:24.062Z,9.899999619
2022-07-25T04:13:25.634Z,10.39999962
2022-07-25T04:14:26.267Z,10.10000038
2022-07-25T04:15:27.052Z,10.60000038
2022-07-25T04:16:28.104Z,10.30000019
2022-07-25T04:17:28.553Z,10.60000038
2022-07-25T04:18:30.160Z,10.80000019
2022-07-25T04:19:30.703Z,10.5
2022-07-25T04:21:02.090Z,10.5
2022-07-25T04:22:02.890Z,10
2022-07-25T04:23:03.595Z,10.19999981
2022-07-25T04:24:04.669Z,10
2022-07-25T04:25:05.158Z,9.800000191
2022-07-25T04:26:06.000Z,10.60000038
2022-07-25T04:27:06.850Z,10.69999981
2022-07-25T04:28:07.579Z,10.10000038
2022-07-25T04:29:08.874Z,9.800000191
2022-07-25T04:30:09.684Z,10.89999962
2022-07-25T04:31:10.557Z,10.19999981
2022-07-25T04:32:11.725Z,10.30000019
2022-07-25T04:33:12.322Z,9.899999619
2022-07-25T04:34:13.041Z,9.800000191
2022-07-25T04:35:13.845Z,10.30000019
2022-07-25T04:36:15.500Z,10.19999981
2022-07-25T04:37:16.293Z,10.30000019
2022-07-25T04:38:16.999Z,9.800000191
2022-07-25T04:39:18.363Z,10.39999962
2022-07-25T04:40:19.155Z,9.899999619
2022-07-25T04:41:19.951Z,10.30000019
2022-07-25T04:42:20.849Z,10.5
2022-07-25T04:43:22.525Z,9.5
2022-07-25T04:44:23.216Z,9.899999619
2022-07-25T04:45:24.139Z,10.39999962
2022-07-25T04:46:24.841Z,10.69999981
2022-07-25T04:47:25.662Z,10.5
2022-07-25T04:48:26.414Z,10.60000038
2022-07-25T04:49:28.049Z,10.89999962
2022-07-25T04:50:28.753Z,10.10000038
2022-07-25T04:51:29.594Z,9.899999619
2022-07-25T04:52:30.375Z,10.30000019
2022-07-25T04:54:01.463Z,10.19999981
2022-07-25T04:55:02.268Z,10.69999981
2022-07-25T04:56:03.110Z,11.19999981
2022-07-25T04:57:03.892Z,11.19999981
2022-07-25T04:58:04.660Z,9.699999809
2022-07-25T04:59:06.822Z,10.30000019
2022-07-25T05:00:07.566Z,10.10000038
2022-07-25T05:01:08.389Z,10.19999981
2022-07-25T05:02:09.229Z,10.69999981
2022-07-25T05:03:09.960Z,10.30000019
2022-07-25T05:04:10.751Z,10.80000019
2022-07-25T05:05:21.191Z,10.39999962
2022-07-25T05:06:13.914Z,10.80000019
2022-07-25T05:07:14.730Z,10.89999962
2022-07-25T05:08:15.529Z,11.19999981
2022-07-25T05:09:16.851Z,10.60000038
2022-07-25T05:10:17.576Z,10.39999962
2022-07-25T05:11:18.365Z,10.89999962
2022-07-25T05:12:19.148Z,11.69999981
2022-07-25T05:13:19.878Z,10.5
2022-07-25T05:14:20.606Z,10.39999962
2022-07-25T05:15:21.335Z,10.89999962
2022-07-25T05:16:22.167Z,10.89999962
2022-07-25T05:17:22.891Z,12.10000038
2022-07-25T05:18:23.728Z,10.69999981
2022-07-25T05:19:25.342Z,11.10000038
2022-07-25T05:20:26.144Z,10.60000038
2022-07-25T05:21:26.910Z,10.80000019
2022-07-25T05:22:29.122Z,11
2022-07-25T05:23:29.534Z,11.19999981
2022-07-25T05:24:30.720Z,10.80000019
2022-07-25T05:26:01.797Z,10.89999962
2022-07-25T05:27:02.468Z,10.80000019
2022-07-25T05:28:03.261Z,10.5
2022-07-25T05:29:05.039Z,10.89999962
2022-07-25T05:30:05.772Z,10.30000019
2022-07-25T05:31:06.680Z,10.89999962
2022-07-25T05:32:07.378Z,10.80000019
2022-07-25T05:33:08.190Z,10.69999981
2022-07-25T05:34:09.974Z,10.60000038
2022-07-25T05:35:10.337Z,10.39999962
2022-07-25T05:36:11.052Z,10.69999981
2022-07-25T05:37:11.679Z,11.10000038
2022-07-25T05:38:12.381Z,10.89999962
2022-07-25T05:39:13.998Z,10.39999962
2022-07-25T05:40:14.701Z,10.39999962
2022-07-25T05:41:15.433Z,10.80000019
2022-07-25T05:42:16.234Z,12
2022-07-25T05:43:17.036Z,10.30000019
2022-07-25T05:44:17.811Z,11.80000019
2022-07-25T05:45:18.548Z,11
2022-07-25T05:46:19.366Z,11.19999981
2022-07-25T05:47:19.991Z,10.69999981
2022-07-25T05:48:20.676Z,11.10000038
2022-07-25T05:49:22.017Z,11.39999962
2022-07-25T05:50:22.704Z,10.89999962
2022-07-25T05:51:26.825Z,10.39999962
2022-07-25T05:52:24.148Z,10.89999962
2022-07-25T05:53:24.976Z,10.5
2022-07-25T05:54:26.540Z,10.39999962
2022-07-25T05:55:27.324Z,10.39999962
2022-07-25T05:56:28.026Z,10.39999962
2022-07-25T05:57:28.741Z,10.30000019
2022-07-25T05:58:30.161Z,10.60000038
2022-07-25T06:00:02.047Z,11
2022-07-25T06:01:02.823Z,11.19999981
2022-07-25T06:02:03.828Z,10.39999962
2022-07-25T06:03:04.858Z,10.60000038
2022-07-25T06:04:05.749Z,10
2022-07-25T06:05:06.206Z,10.39999962
2022-07-25T06:06:07.525Z,9.600000381
2022-07-25T06:07:08.454Z,10.30000019
2022-07-25T06:08:08.905Z,10.80000019
2022-07-25T06:09:10.578Z,10.30000019
2022-07-25T06:10:41.615Z,10.30000019
2022-07-25T06:12:12.847Z,10.5
2022-07-25T06:13:13.610Z,11.10000038
2022-07-25T06:14:14.435Z,11.60000038
2022-07-25T06:15:22.477Z,10.69999981
2022-07-25T06:16:15.893Z,11.30000019
2022-07-25T06:17:16.607Z,10.39999962
2022-07-25T06:18:17.379Z,11.10000038
2022-07-25T06:19:19.043Z,10.69999981
2022-07-25T06:20:20.176Z,10.39999962
2022-07-25T06:21:20.626Z,11.69999981
2022-07-25T06:22:21.330Z,11
2022-07-25T06:23:21.960Z,10.89999962
2022-07-25T06:24:22.632Z,11.19999981
2022-07-25T06:25:23.375Z,11.10000038
2022-07-25T06:26:24.056Z,10.80000019
2022-07-25T06:27:29.082Z,10.5
2022-07-25T06:28:25.467Z,11.10000038
2022-07-25T06:29:27.046Z,10.80000019
2022-07-25T06:30:27.860Z,10.69999981
2022-07-25T06:31:28.578Z,10.19999981
2022-07-25T06:32:29.321Z,10.39999962
2022-07-25T06:34:00.494Z,10.89999962
2022-07-25T06:35:01.993Z,11.19999981
2022-07-25T06:36:02.804Z,11.69999981
2022-07-25T06:37:03.589Z,11.10000038
2022-07-25T06:38:04.616Z,10.39999962
2022-07-25T06:39:05.276Z,10.60000038
2022-07-25T06:40:06.959Z,11
2022-07-25T06:41:07.755Z,10.19999981
2022-07-25T06:42:08.501Z,11.30000019
2022-07-25T06:43:09.220Z,10.39999962
2022-07-25T06:44:10.096Z,11.39999962
2022-07-25T06:45:10.666Z,10.30000019
2022-07-25T06:46:11.729Z,10.80000019
2022-07-25T06:47:12.499Z,10.39999962
2022-07-25T06:48:13.314Z,10.89999962
2022-07-25T06:49:14.135Z,10.39999962
2022-07-25T06:50:15.464Z,11.5
2022-07-25T06:51:16.235Z,10.89999962
2022-07-25T06:52:16.955Z,11.10000038
2022-07-25T06:53:17.698Z,11.19999981
2022-07-25T06:54:18.356Z,10.89999962
2022-07-25T06:55:19.058Z,12.89999962
2022-07-25T06:56:19.742Z,12.30000019
2022-07-25T06:57:20.455Z,11.10000038
2022-07-25T06:58:22.921Z,10.39999962
2022-07-25T06:59:21.989Z,11
2022-07-25T07:00:23.356Z,12.30000019
2022-07-25T07:01:24.108Z,11.30000019
2022-07-25T07:02:24.726Z,10.60000038
2022-07-25T07:03:25.495Z,10.89999962
2022-07-25T07:04:27.028Z,10.30000019
2022-07-25T07:05:27.704Z,10.5
2022-07-25T07:06:28.419Z,10.69999981
2022-07-25T07:07:29.516Z,9.800000191
2022-07-25T07:09:01.375Z,10.5
2022-07-25T07:10:02.862Z,9.800000191
2022-07-25T07:11:03.547Z,9.899999619
2022-07-25T07:12:04.240Z,9.899999619
2022-07-25T07:13:04.997Z,9.699999809
2022-07-25T07:14:06.204Z,9.199999809
2022-07-25T07:15:06.471Z,9.199999809
2022-07-25T07:16:07.268Z,9.100000381
2022-07-25T07:17:07.861Z,9.300000191
2022-07-25T07:18:08.557Z,10
2022-07-25T07:19:09.653Z,10.30000019
2022-07-25T07:20:10.871Z,9.600000381
2022-07-25T07:21:11.625Z,9.5
2022-07-25T07:22:12.329Z,10.10000038
2022-07-25T07:23:16.550Z,14.39999962
2022-07-25T07:24:24.076Z,24.79999924
2022-07-25T07:25:14.372Z,18.70000076
2022-07-25T07:26:15.033Z,12.80000019
2022-07-25T07:27:15.759Z,13
2022-07-25T07:28:16.445Z,10.10000038
2022-07-25T07:29:17.127Z,11.10000038
2022-07-25T07:30:23.773Z,9.399999619
2022-07-25T07:31:19.381Z,10.19999981
2022-07-25T07:32:19.838Z,9.899999619
2022-07-25T07:33:20.389Z,10
2022-07-25T07:34:21.082Z,9.699999809
2022-07-25T07:35:22.379Z,9
2022-07-25T07:36:23.079Z,10
2022-07-25T07:37:23.745Z,9.699999809
2022-07-25T07:38:25.019Z,9.800000191
2022-07-25T07:39:25.728Z,10.69999981
2022-07-25T07:40:27.403Z,9.5
2022-07-25T07:41:28.109Z,10.39999962
2022-07-25T07:42:29.213Z,9.899999619
2022-07-25T07:44:00.214Z,11
2022-07-25T07:45:00.910Z,9.899999619
2022-07-25T07:46:01.924Z,10
2022-07-25T07:47:02.213Z,9.399999619
2022-07-25T07:48:02.881Z,9.399999619
2022-07-25T07:49:03.993Z,10.30000019
2022-07-25T07:50:05.077Z,9.899999619
2022-07-25T07:51:05.711Z,9.5
2022-07-25T07:52:06.419Z,9.5
2022-07-25T07:53:07.130Z,9.5
2022-07-25T07:54:07.879Z,9.800000191
2022-07-25T07:55:08.543Z,9
2022-07-25T07:56:09.194Z,9.800000191
2022-07-25T07:57:09.862Z,10
2022-07-25T07:58:10.575Z,11.10000038
2022-07-25T07:59:11.491Z,9.399999619
2022-07-25T08:00:16.539Z,9.899999619
2022-07-25T08:01:13.747Z,9.800000191
2022-07-25T08:02:14.449Z,9.300000191
2022-07-25T08:03:15.195Z,9.100000381
2022-07-25T08:04:15.785Z,9.399999619
2022-07-25T08:05:17.453Z,9.300000191
2022-07-25T08:06:18.098Z,8.800000191
2022-07-25T08:07:18.818Z,8.600000381
2022-07-25T08:08:19.516Z,8.199999809
2022-07-25T08:09:20.208Z,8.100000381
2022-07-25T08:10:21.894Z,7.800000191
2022-07-25T08:11:22.586Z,8.800000191
2022-07-25T08:12:23.919Z,8.199999809
2022-07-25T08:13:24.614Z,8.600000381
2022-07-25T08:14:25.311Z,8.100000381
2022-07-25T08:15:26.551Z,7.699999809
2022-07-25T08:16:27.308Z,9.300000191
2022-07-25T08:17:28.792Z,8.600000381
2022-07-25T08:18:59.909Z,9.5
2022-07-25T08:20:20.949Z,8.600000381
2022-07-25T08:21:02.348Z,8.399999619
2022-07-25T08:22:02.995Z,8.399999619
2022-07-25T08:23:03.745Z,7.699999809
2022-07-25T08:24:04.798Z,8.100000381
2022-07-25T08:25:05.165Z,7.900000095
2022-07-25T08:26:05.902Z,8
2022-07-25T08:27:07.564Z,8
2022-07-25T08:28:08.295Z,8.600000381
2022-07-25T08:29:19.236Z,7.5
2022-07-25T08:30:11.069Z,7.699999809
2022-07-25T08:31:12.073Z,7.900000095
2022-07-25T08:32:12.679Z,7.800000191
2022-07-25T08:33:13.685Z,7.900000095
2022-07-25T08:34:14.033Z,7.300000191
2022-07-25T08:35:14.797Z,7.699999809
2022-07-25T08:36:15.532Z,7.5
2022-07-25T08:37:17.076Z,8.600000381
2022-07-25T08:38:17.825Z,9
2022-07-25T08:39:18.586Z,7.599999905
2022-07-25T08:40:20.048Z,6.699999809
2022-07-25T08:41:20.793Z,7.400000095
2022-07-25T08:42:21.412Z,7.900000095
2022-07-25T08:43:22.090Z,7.699999809
2022-07-25T08:44:22.761Z,7.800000191
2022-07-25T08:45:23.394Z,7.400000095
2022-07-25T08:46:24.281Z,8
2022-07-25T08:47:24.835Z,9.100000381
2022-07-25T08:48:25.714Z,8.100000381
2022-07-25T08:49:26.193Z,7.699999809
2022-07-25T08:50:27.392Z,8.100000381
2022-07-25T08:51:28.557Z,8.399999619
2022-07-25T08:53:31.092Z,9.100000381
2022-07-25T08:54:00.901Z,8.899999619
2022-07-25T08:55:01.599Z,8.800000191
2022-07-25T08:56:06.668Z,8
2022-07-25T08:57:03.045Z,7.599999905
2022-07-25T08:58:03.843Z,8.100000381
2022-07-25T08:59:04.726Z,8.300000191
2022-07-25T09:00:06.090Z,7.800000191
2022-07-25T09:01:06.945Z,8.199999809
2022-07-25T09:02:08.510Z,9.399999619
2022-07-25T09:03:09.272Z,8.199999809
2022-07-25T09:04:10.478Z,7.800000191
2022-07-25T09:05:10.538Z,7.800000191
2022-07-25T09:06:11.542Z,8.300000191
2022-07-25T09:07:13.177Z,8.600000381
2022-07-25T09:08:13.716Z,9.199999809
2022-07-25T09:09:14.396Z,8.399999619
2022-07-25T09:10:15.609Z,8.5
2022-07-25T09:11:16.238Z,8.899999619
2022-07-25T09:12:17.100Z,8.600000381
2022-07-25T09:13:17.588Z,7.800000191
2022-07-25T09:14:18.933Z,8.800000191
2022-07-25T09:15:19.662Z,9.699999809
2022-07-25T09:16:20.397Z,9.199999809
2022-07-25T09:17:22.669Z,8.800000191
2022-07-25T09:18:21.689Z,8.399999619
2022-07-25T09:19:22.359Z,8.5
2022-07-25T09:20:24.046Z,8.800000191
2022-07-25T09:21:24.750Z,8.5
2022-07-25T09:22:25.488Z,8.399999619
2022-07-25T09:23:26.158Z,8.5
2022-07-25T09:24:26.868Z,8.300000191
2022-07-25T09:25:27.573Z,8
2022-07-25T09:26:58.805Z,8.199999809
2022-07-25T09:27:59.558Z,8.199999809
2022-07-25T09:29:00.228Z,8.300000191
2022-07-25T09:30:00.976Z,8.5
2022-07-25T09:31:02.433Z,8.5
2022-07-25T09:32:03.048Z,8.100000381
2022-07-25T09:33:03.758Z,8.399999619
2022-07-25T09:34:04.855Z,7.699999809
2022-07-25T09:35:06.057Z,7.900000095
2022-07-25T09:36:06.715Z,8.199999809
2022-07-25T09:37:07.478Z,8.199999809
2022-07-25T09:38:08.194Z,8.399999619
2022-07-25T09:39:08.855Z,7.900000095
2022-07-25T09:40:10.557Z,8.199999809
2022-07-25T09:41:12.062Z,8.300000191
2022-07-25T09:42:12.745Z,8.399999619
2022-07-25T09:43:13.474Z,8.699999809
2022-07-25T09:44:14.200Z,8.300000191
2022-07-25T09:45:15.024Z,7.800000191
2022-07-25T09:46:15.829Z,8.600000381
2022-07-25T09:47:16.602Z,7.599999905
2022-07-25T09:48:17.338Z,8.300000191
2022-07-25T09:49:18.191Z,7.900000095
2022-07-25T09:50:18.879Z,7.800000191
2022-07-25T09:51:20.507Z,8
2022-07-25T09:52:21.235Z,8.100000381
2022-07-25T09:53:21.956Z,8
2022-07-25T09:54:22.595Z,8.100000381
2022-07-25T09:55:23.408Z,8.100000381
2022-07-25T09:56:24.231Z,8
2022-07-25T09:57:25.006Z,7.599999905
2022-07-25T09:58:25.762Z,7.699999809
2022-07-25T09:59:26.435Z,8
2022-07-25T10:00:27.709Z,7.900000095
2022-07-25T10:01:59.546Z,7.800000191
2022-07-25T10:03:00.173Z,7.900000095
2022-07-25T10:04:00.854Z,7.400000095
2022-07-25T10:05:01.623Z,7.099999905
2022-07-25T10:06:02.463Z,7.300000191
2022-07-25T10:07:04.146Z,7
2022-07-25T10:08:04.875Z,7.400000095
2022-07-25T10:09:05.658Z,7.300000191
2022-07-25T10:10:06.449Z,7.599999905
2022-07-25T10:11:08.152Z,7.300000191
2022-07-25T10:12:08.976Z,8.100000381
2022-07-25T10:13:10.800Z,7.400000095
2022-07-25T10:14:11.642Z,6.699999809
2022-07-25T10:15:12.379Z,7.199999809
2022-07-25T10:16:13.277Z,7.300000191
2022-07-25T10:17:14.080Z,6.800000191
2022-07-25T10:18:14.770Z,7.900000095
2022-07-25T10:19:15.479Z,6.800000191
2022-07-25T10:20:16.196Z,7.300000191
2022-07-25T10:21:26.175Z,7.5
2022-07-25T10:22:29.385Z,8.199999809
2022-07-25T10:23:19.043Z,7.400000095
2022-07-25T10:24:19.773Z,7
2022-07-25T10:25:20.506Z,7.199999809
2022-07-25T10:26:21.312Z,7.599999905
2022-07-25T10:27:22.103Z,7.800000191
2022-07-25T10:28:22.810Z,7
2022-07-25T10:29:23.630Z,7.599999905
2022-07-25T10:30:24.405Z,6.800000191
2022-07-25T10:31:26.089Z,6.699999809
2022-07-25T10:32:26.804Z,7
2022-07-25T10:33:57.853Z,6.5
2022-07-25T10:34:58.595Z,7.300000191
2022-07-25T10:36:00.027Z,6.400000095
2022-07-25T10:37:00.806Z,6.800000191
2022-07-25T10:38:01.533Z,6.099999905
2022-07-25T10:39:02.180Z,6
2022-07-25T10:40:03.135Z,6.400000095
2022-07-25T10:41:04.511Z,5.400000095
2022-07-25T10:42:06.148Z,5.699999809
2022-07-25T10:43:06.909Z,5.099999905
2022-07-25T10:44:07.835Z,5.099999905
2022-07-25T10:45:08.419Z,4.900000095
2022-07-25T10:46:09.287Z,4.900000095
2022-07-25T10:47:10.019Z,5.5
2022-07-25T10:48:10.730Z,5.099999905
2022-07-25T10:49:12.166Z,5.199999809
2022-07-25T10:50:29.748Z,4.800000191
2022-07-25T10:51:14.039Z,5
2022-07-25T10:52:14.797Z,5.099999905
2022-07-25T10:53:16.467Z,4.699999809
2022-07-25T10:54:17.168Z,4.900000095
2022-07-25T10:55:17.915Z,4.800000191
2022-07-25T10:56:18.755Z,5.099999905
2022-07-25T10:57:19.555Z,4.699999809
2022-07-25T10:58:20.349Z,4.900000095
2022-07-25T10:59:21.040Z,4.800000191
2022-07-25T11:00:22.527Z,5.099999905
2022-07-25T11:01:24.243Z,4.900000095
2022-07-25T11:02:24.970Z,4.599999905
2022-07-25T11:03:25.667Z,5
2022-07-25T11:04:26.394Z,5
2022-07-25T11:05:57.672Z,4.699999809
2022-07-25T11:06:58.429Z,4.800000191
2022-07-25T11:08:20.631Z,5.300000191
2022-07-25T11:09:00.780Z,5.199999809
2022-07-25T11:10:01.606Z,4.800000191
2022-07-25T11:11:03.173Z,4.900000095
2022-07-25T11:12:03.949Z,5.699999809
2022-07-25T11:13:04.671Z,5.400000095
2022-07-25T11:14:05.320Z,5.5
2022-07-25T11:15:05.986Z,5.599999905
2022-07-25T11:16:06.854Z,5.099999905
2022-07-25T11:17:07.718Z,5.199999809
2022-07-25T11:18:08.370Z,4.900000095
2022-07-25T11:19:09.396Z,5.400000095
2022-07-25T11:20:09.761Z,5.199999809
2022-07-25T11:21:11.329Z,5.400000095
2022-07-25T11:22:11.956Z,5.099999905
2022-07-25T11:23:12.878Z,4.900000095
2022-07-25T11:24:13.386Z,5.099999905
2022-07-25T11:25:14.198Z,4.5
2022-07-25T11:26:15.111Z,4.599999905
2022-07-25T11:27:15.818Z,4.300000191
2022-07-25T11:28:16.604Z,4.199999809
2022-07-25T11:29:17.315Z,4.300000191
2022-07-25T11:30:18.080Z,4.5
2022-07-25T11:31:19.722Z,4.099999905
2022-07-25T11:32:20.527Z,4
2022-07-25T11:33:21.281Z,4.300000191
2022-07-25T11:34:21.963Z,3.900000095